< Typhoon 199615 1996 Season Typhoon 199617 >
Typhoon 199616 (SALLY)
General InformationTrack Information on Google MapsDetailed Wind InformationList of All Images || Disaster Info.ResourceGoogle EarthGE AnimationAtom FeedGeoJSON
Detalied Best Track (Time Zone = UTC)
Year Month Day Hour Lat. Long. Pressure (hPa) Wind (kt) Class Image Chart
1996 9 5 00 15.1 134.2 1004 0 2 Image Chart
1996 9 5 06 15.4 133.6 1002 0 2 Image Chart
1996 9 5 12 15.6 132.9 1000 0 2 Image Chart
1996 9 5 18 15.7 132.2 1000 0 2 Image Chart
1996 9 6 00 16.1 131.4 996 35 3 Image Chart
1996 9 6 06 16.6 130.6 990 45 3 Image Chart
1996 9 6 12 17.2 129.5 985 50 4 Image Chart
1996 9 6 18 17.6 128.2 980 55 4 Image Chart
1996 9 7 00 18.2 126.9 975 60 4 Image Chart
1996 9 7 06 18.7 125.4 970 65 5 Image Chart
1996 9 7 12 19.0 123.6 960 75 5 Image Chart
1996 9 7 18 19.2 121.9 950 80 5 Image Chart
1996 9 8 00 19.4 119.9 945 85 5 Image Chart
1996 9 8 06 19.9 117.9 940 85 5 Image Chart
1996 9 8 12 20.3 115.7 940 85 5 Image Chart
1996 9 8 18 20.7 113.6 940 85 5 Image Chart
1996 9 9 00 21.1 111.5 950 75 5 Image Chart
1996 9 9 06 21.7 109.3 970 60 4 Image Chart
1996 9 9 12 21.9 107.5 980 55 4 Image Chart
1996 9 9 18 22.6 105.2 992 45 3 Image Chart
1996 9 10 00 23.3 104.1 1000 0 2 Image Chart
1996 9 10 06 24.4 103.0 1002 0 2 Image Chart
1996 9 10 12 24.8 101.4 1004 0 2 Image Chart
1996 9 10 18 25.1 100.2 1004 0 2 Image Chart
Japan Meteorological Agency Best Track Data | Correction Date : 1997-01-07
< Typhoon 199615 1996 Season Typhoon 199617 >

Help